Time;durP1;ratioP1;P1;durP2;ratioP2;P2;SDS_P1;SDS_P2;PMS_P1;PMS_P2;Temp;Humidity;BMP_temperature;BMP_pressure;BME280_temperature;BME280_humidity;BME280_pressure;Samples;Min_cycle;Max_cycle;Signal;HPM_P1;HPM_P2
2022/04/19 00:01:15;;;;;;;;;;;;;;;5.42;68.63;100427.31;4941670;29;1514;-89
2022/04/19 00:03:40;;;;;;;;;;;;;;;5.85;68.33;100431.19;4959216;28;1898;-89
2022/04/19 00:06:05;;;;;;;;;;;;;;;5.83;67.47;100417.84;4946766;29;1417;-89
2022/04/19 00:08:30;;;;;;;;;;;;;;;5.69;67.88;100424.72;4958430;28;1008;-89
2022/04/19 00:10:55;;;;;;;;;;;;;;;5.93;66.93;100420.75;4956979;28;1773;-89
2022/04/19 00:13:21;;;;;;;;;;;;;;;5.91;66.85;100422.06;4941248;29;1258;-89
2022/04/19 00:15:46;;;;;;;;;;;;;;;5.59;67.58;100413.72;4941588;29;1217;-89
2022/04/19 00:18:12;;;;;;;;;;;;;;;5.62;67.89;100422.16;4952526;29;1626;-89
2022/04/19 00:20:42;;;;;;;;;;;;;;;5.24;68.65;100414.00;4946179;29;1499;-89
2022/04/19 00:23:12;;;;;;;;;;;;;;;5.31;69.99;100414.66;4954931;28;1499;-89
2022/04/19 00:25:38;;;;;;;;;;;;;;;5.53;67.77;100412.00;4950982;29;1902;-89
2022/04/19 00:28:03;;;;;;;;;;;;;;;5.65;66.82;100413.53;4941084;29;1554;-89
2022/04/19 00:30:28;;;;;;;;;;;;;;;5.43;66.72;100409.97;4940972;29;1666;-89
2022/04/19 00:32:53;;;;;;;;;;;;;;;5.56;67.13;100406.88;4970840;28;1541;-89
2022/04/19 00:35:18;;;;;;;;;;;;;;;5.43;67.76;100401.00;4953353;29;1912;-89
2022/04/19 00:37:43;;;;;;;;;;;;;;;5.41;68.14;100398.53;4956633;28;1593;-89
2022/04/19 00:40:09;;;;;;;;;;;;;;;5.48;68.45;100406.50;4952198;29;1427;-89
2022/04/19 00:42:34;;;;;;;;;;;;;;;5.63;67.55;100399.38;4953071;28;1283;-89
2022/04/19 00:45:02;;;;;;;;;;;;;;;5.59;66.82;100394.72;4940837;29;1964;-89
2022/04/19 00:47:28;;;;;;;;;;;;;;;5.33;67.52;100398.94;4940854;29;1225;-89
2022/04/19 00:49:53;;;;;;;;;;;;;;;5.29;66.95;100395.06;4940475;28;1443;-88
2022/04/19 00:52:18;;;;;;;;;;;;;;;4.97;67.78;100402.97;4942066;28;1633;-89
2022/04/19 00:54:44;;;;;;;;;;;;;;;4.59;70.06;100403.69;4954059;29;1414;-89
2022/04/19 00:57:10;;;;;;;;;;;;;;;4.94;69.48;100392.63;4970590;28;1601;-89
2022/04/19 00:59:36;;;;;;;;;;;;;;;4.97;69.46;100394.84;4946863;28;1551;-89
2022/04/19 01:02:02;;;;;;;;;;;;;;;4.66;69.03;100400.81;4955794;28;1562;-88
2022/04/19 01:04:30;;;;;;;;;;;;;;;4.90;69.55;100388.78;4946476;28;1957;-90
2022/04/19 01:06:56;;;;;;;;;;;;;;;4.65;69.61;100400.00;4943386;29;1491;-89
2022/04/19 01:09:22;;;;;;;;;;;;;;;4.61;70.09;100398.00;4941459;28;1281;-89
2022/04/19 01:14:34;;;;;;;;;;;;;;;4.34;71.53;100401.31;4982075;28;1565;-89
2022/04/19 01:16:59;;;;;;;;;;;;;;;4.76;69.79;100393.69;4956736;28;1555;-89
2022/04/19 01:19:25;;;;;;;;;;;;;;;4.86;68.92;100393.03;4943043;28;1888;-89
2022/04/19 01:21:50;;;;;;;;;;;;;;;4.73;69.15;100398.78;4945678;29;1162;-89
2022/04/19 01:24:16;;;;;;;;;;;;;;;4.53;70.03;100394.63;4949590;29;2034;-89
2022/04/19 01:26:42;;;;;;;;;;;;;;;4.67;70.53;100397.88;4940184;29;1182;-89
2022/04/19 01:29:08;;;;;;;;;;;;;;;4.79;69.34;100390.47;4939917;28;1838;-89
2022/04/19 01:31:33;;;;;;;;;;;;;;;4.67;70.11;100388.91;4953703;29;2052;-89
2022/04/19 01:33:58;;;;;;;;;;;;;;;4.55;70.70;100388.97;4948547;28;1547;-90
2022/04/19 01:36:23;;;;;;;;;;;;;;;4.67;69.94;100387.03;4946657;28;1920;-89
2022/04/19 01:38:48;;;;;;;;;;;;;;;4.53;70.04;100386.50;4944013;29;1423;-89
2022/04/19 01:41:14;;;;;;;;;;;;;;;4.09;72.49;100393.50;4952344;28;1367;-88
2022/04/19 01:43:41;;;;;;;;;;;;;;;3.86;72.73;100400.88;4947650;28;1710;-89
2022/04/19 01:46:06;;;;;;;;;;;;;;;4.34;71.72;100400.50;4955753;28;1276;-89
2022/04/19 01:48:31;;;;;;;;;;;;;;;4.47;70.14;100400.22;4939857;29;1009;-88
2022/04/19 01:50:57;;;;;;;;;;;;;;;4.44;69.29;100389.84;4948352;28;1638;-89
2022/04/19 01:53:22;;;;;;;;;;;;;;;4.40;69.74;100394.94;4952972;29;1548;-89
2022/04/19 01:55:47;;;;;;;;;;;;;;;4.42;69.81;100392.78;4951171;29;1511;-89
2022/04/19 01:58:12;;;;;;;;;;;;;;;4.45;70.63;100389.59;4956398;28;1578;-88
2022/04/19 02:00:37;;;;;;;;;;;;;;;4.70;70.23;100391.94;4939863;28;1395;-89
2022/04/19 02:03:03;;;;;;;;;;;;;;;4.87;69.02;100384.66;4960540;28;1278;-88
2022/04/19 02:05:28;;;;;;;;;;;;;;;4.85;68.83;100389.50;4951327;28;2259;-88
2022/04/19 02:07:53;;;;;;;;;;;;;;;4.68;69.07;100383.22;4953016;28;1959;-89
2022/04/19 02:10:19;;;;;;;;;;;;;;;4.14;70.35;100390.91;4949949;28;2038;-89
2022/04/19 02:12:44;;;;;;;;;;;;;;;4.15;71.51;100383.63;4944052;28;1911;-89
2022/04/19 02:15:09;;;;;;;;;;;;;;;4.27;70.54;100381.66;4939342;29;1586;-89
2022/04/19 02:17:44;;;;;;;;;;;;;;;4.42;70.40;100384.66;4950284;29;1270;-89
2022/04/19 02:20:09;;;;;;;;;;;;;;;4.33;70.23;100386.13;4939942;28;1946;-89
2022/04/19 02:22:35;;;;;;;;;;;;;;;4.40;70.38;100386.81;4940249;29;1317;-89
2022/04/19 02:25:00;;;;;;;;;;;;;;;4.34;69.87;100393.19;4938929;29;1956;-89
2022/04/19 02:27:31;;;;;;;;;;;;;;;4.29;69.31;100389.56;4946778;29;1293;-89
2022/04/19 02:29:56;;;;;;;;;;;;;;;3.96;70.79;100392.97;4956100;28;1966;-89
2022/04/19 02:32:23;;;;;;;;;;;;;;;4.28;70.80;100388.75;4969476;28;1033;-89
2022/04/19 02:34:48;;;;;;;;;;;;;;;4.43;70.38;100389.00;4971562;28;1835;-88
2022/04/19 02:37:15;;;;;;;;;;;;;;;4.33;70.09;100396.16;4965999;28;1210;-88
2022/04/19 02:39:40;;;;;;;;;;;;;;;4.23;69.96;100390.53;4960908;28;1444;-88
2022/04/19 02:42:06;;;;;;;;;;;;;;;4.11;69.53;100383.25;4962036;28;1831;-89
2022/04/19 02:44:32;;;;;;;;;;;;;;;3.97;70.23;100389.22;4946932;29;1969;-89
2022/04/19 02:46:57;;;;;;;;;;;;;;;3.86;71.12;100390.06;4942248;29;1856;-89
2022/04/19 02:49:23;;;;;;;;;;;;;;;3.83;71.69;100385.13;4947872;29;1467;-89
2022/04/19 02:51:48;;;;;;;;;;;;;;;3.99;70.92;100381.69;4953899;28;1511;-89
2022/04/19 02:54:13;;;;;;;;;;;;;;;3.88;70.27;100377.94;4958164;28;986;-89
2022/04/19 02:56:38;;;;;;;;;;;;;;;3.83;70.90;100375.09;4949714;29;1883;-89
2022/04/19 02:59:03;;;;;;;;;;;;;;;3.65;71.94;100375.28;4940553;28;1969;-89
2022/04/19 03:01:29;;;;;;;;;;;;;;;3.76;71.52;100371.72;4954453;28;1276;-89
2022/04/19 03:03:54;;;;;;;;;;;;;;;3.58;70.70;100369.97;4938585;29;1926;-89
2022/04/19 03:06:20;;;;;;;;;;;;;;;3.31;72.36;100364.25;4960100;28;1578;-88
2022/04/19 03:08:45;;;;;;;;;;;;;;;3.46;72.05;100366.47;4954039;29;1458;-89
2022/04/19 03:11:12;;;;;;;;;;;;;;;3.55;71.56;100364.22;4945543;29;1959;-89
2022/04/19 03:13:37;;;;;;;;;;;;;;;3.58;71.11;100359.16;4953759;28;1536;-88
2022/04/19 03:16:03;;;;;;;;;;;;;;;3.51;71.66;100357.63;4945249;28;1453;-89
2022/04/19 03:18:28;;;;;;;;;;;;;;;3.61;71.49;100361.38;4958403;28;1568;-89
2022/04/19 03:20:53;;;;;;;;;;;;;;;3.74;71.65;100360.31;4949985;29;2011;-89
2022/04/19 03:28:46;;;;;;;;;;;;;;;3.95;71.17;100359.66;4979274;28;649;-90
2022/04/19 03:31:12;;;;;;;;;;;;;;;3.85;70.99;100354.03;4957856;28;1712;-89
2022/04/19 03:33:38;;;;;;;;;;;;;;;3.74;70.97;100363.03;4948245;28;1792;-89
2022/04/19 03:36:04;;;;;;;;;;;;;;;3.52;71.29;100357.41;4955615;28;1569;-89
2022/04/19 03:38:29;;;;;;;;;;;;;;;3.63;72.10;100363.88;4946245;28;1587;-89
2022/04/19 03:40:54;;;;;;;;;;;;;;;3.64;71.57;100360.09;4960373;28;1733;-89
2022/04/19 03:43:20;;;;;;;;;;;;;;;3.63;71.76;100356.56;4959220;28;1583;-88
2022/04/19 03:45:45;;;;;;;;;;;;;;;3.68;71.48;100358.53;4959996;28;1957;-88
2022/04/19 03:48:13;;;;;;;;;;;;;;;3.65;71.28;100361.75;4949412;29;1606;-88
2022/04/19 03:50:39;;;;;;;;;;;;;;;3.61;71.61;100361.38;4950396;28;1881;-88
2022/04/19 03:53:05;;;;;;;;;;;;;;;3.65;71.45;100361.75;4964159;28;1321;-89
2022/04/19 03:55:30;;;;;;;;;;;;;;;3.54;71.72;100368.00;4964076;28;954;-89
2022/04/19 03:57:55;;;;;;;;;;;;;;;3.57;72.84;100367.53;4958330;28;1899;-89
2022/04/19 04:00:21;;;;;;;;;;;;;;;3.43;71.64;100362.34;4966584;28;1217;-89
2022/04/19 04:02:46;;;;;;;;;;;;;;;3.38;71.69;100364.97;4952517;28;1891;-90
2022/04/19 04:05:11;;;;;;;;;;;;;;;3.40;72.11;100365.53;4944416;29;1943;-90
2022/04/19 04:07:38;;;;;;;;;;;;;;;3.39;72.33;100365.78;4952865;28;1316;-88
2022/04/19 04:10:03;;;;;;;;;;;;;;;3.36;72.06;100372.47;4964150;28;1372;-89
2022/04/19 04:12:29;;;;;;;;;;;;;;;3.34;71.29;100374.59;4966335;28;1859;-90
2022/04/19 04:14:54;;;;;;;;;;;;;;;3.25;71.33;100367.06;4976089;28;1296;-89
2022/04/19 04:17:20;;;;;;;;;;;;;;;3.09;71.53;100367.78;4980823;28;1514;-89
2022/04/19 04:19:45;;;;;;;;;;;;;;;3.10;71.63;100372.13;4959720;28;1982;-88
2022/04/19 04:22:10;;;;;;;;;;;;;;;2.97;73.15;100373.19;4965127;28;1359;-88
2022/04/19 04:24:36;;;;;;;;;;;;;;;3.09;72.19;100368.59;4943699;28;1990;-88
2022/04/19 04:27:01;;;;;;;;;;;;;;;2.98;72.47;100366.69;4953157;28;1594;-90
2022/04/19 04:29:26;;;;;;;;;;;;;;;2.52;72.91;100372.88;4958441;29;1921;-89
2022/04/19 04:31:52;;;;;;;;;;;;;;;2.75;73.04;100366.69;4946599;29;1388;-90
2022/04/19 04:34:17;;;;;;;;;;;;;;;2.72;73.12;100378.81;4957850;28;1822;-89
2022/04/19 04:36:42;;;;;;;;;;;;;;;2.82;73.88;100376.31;4947316;29;1880;-89
2022/04/19 04:39:07;;;;;;;;;;;;;;;2.84;72.40;100376.94;4941101;29;1039;-90
2022/04/19 04:41:32;;;;;;;;;;;;;;;2.88;72.23;100378.13;4958237;28;1738;-89
2022/04/19 04:43:57;;;;;;;;;;;;;;;2.91;73.15;100374.09;4951625;28;1902;-88
2022/04/19 04:51:50;;;;;;;;;;;;;;;3.01;73.18;100379.75;4967534;28;1984;-89
2022/04/19 04:54:15;;;;;;;;;;;;;;;3.03;73.04;100375.78;4945547;29;876;-89
2022/04/19 04:56:40;;;;;;;;;;;;;;;3.20;73.61;100372.38;4949004;29;1423;-89
2022/04/19 04:59:06;;;;;;;;;;;;;;;3.37;72.98;100376.00;4940539;29;1783;-89
2022/04/19 05:01:31;;;;;;;;;;;;;;;3.33;72.91;100381.06;4972588;28;1652;-89
2022/04/19 05:03:56;;;;;;;;;;;;;;;3.40;72.01;100380.97;4971605;28;1943;-89
2022/04/19 05:06:21;;;;;;;;;;;;;;;3.50;71.92;100381.16;4944359;29;1923;-89
2022/04/19 05:08:46;;;;;;;;;;;;;;;3.58;71.98;100372.69;4954208;28;1401;-89
2022/04/19 05:11:11;;;;;;;;;;;;;;;3.60;72.44;100380.56;4963600;28;1410;-89
2022/04/19 05:13:37;;;;;;;;;;;;;;;3.61;72.82;100376.81;4954230;29;1434;-88
2022/04/19 05:16:02;;;;;;;;;;;;;;;3.64;72.39;100377.16;4945307;28;1805;-90
2022/04/19 05:18:27;;;;;;;;;;;;;;;3.67;72.53;100375.84;4940140;29;1974;-89
2022/04/19 05:20:52;;;;;;;;;;;;;;;3.59;72.51;100371.63;4944543;28;1660;-88
2022/04/19 05:23:18;;;;;;;;;;;;;;;3.63;72.89;100375.50;4948093;28;1717;-89
2022/04/19 05:25:43;;;;;;;;;;;;;;;3.67;72.72;100365.00;4940060;29;2014;-89
2022/04/19 05:28:08;;;;;;;;;;;;;;;3.46;73.71;100363.78;4940292;29;1335;-88
2022/04/19 05:30:33;;;;;;;;;;;;;;;3.64;74.14;100362.81;4956901;28;1500;-89
2022/04/19 05:32:58;;;;;;;;;;;;;;;3.84;73.77;100368.63;4942178;28;1470;-90
2022/04/19 05:35:24;;;;;;;;;;;;;;;3.93;73.87;100367.19;4942546;29;1826;-89
2022/04/19 05:37:49;;;;;;;;;;;;;;;4.05;73.51;100362.56;4939745;29;1909;-89
2022/04/19 05:40:14;;;;;;;;;;;;;;;4.10;73.38;100357.25;4957171;28;1261;-89
2022/04/19 05:42:39;;;;;;;;;;;;;;;4.22;73.49;100367.22;4976914;23;4064;-89
2022/04/19 05:45:05;;;;;;;;;;;;;;;4.14;72.44;100371.97;4955862;29;1961;-89
2022/04/19 05:47:31;;;;;;;;;;;;;;;4.23;73.04;100368.88;4935910;29;1633;-89
2022/04/19 05:49:56;;;;;;;;;;;;;;;4.37;73.19;100371.03;4931884;28;1559;-89
2022/04/19 05:52:21;;;;;;;;;;;;;;;4.33;73.54;100372.59;4975648;28;1652;-89
2022/04/19 05:54:46;;;;;;;;;;;;;;;4.40;73.92;100370.56;4975568;28;1783;-88
2022/04/19 05:57:11;;;;;;;;;;;;;;;4.46;73.22;100376.88;4955193;29;1915;-89
2022/04/19 05:59:37;;;;;;;;;;;;;;;4.66;73.26;100374.53;4948647;28;1344;-88
2022/04/19 06:04:53;;;;;;;;;;;;;;;5.02;72.97;100367.00;4975641;28;1963;-90
2022/04/19 06:07:18;;;;;;;;;;;;;;;5.17;71.50;100368.06;4956990;28;1468;-88
2022/04/19 06:09:43;;;;;;;;;;;;;;;5.35;71.73;100368.84;4957889;28;2010;-89
2022/04/19 06:12:08;;;;;;;;;;;;;;;5.40;71.72;100369.75;4953955;28;1848;-90
2022/04/19 06:14:33;;;;;;;;;;;;;;;5.53;70.54;100372.09;4960073;28;1589;-89
2022/04/19 06:16:59;;;;;;;;;;;;;;;5.65;71.18;100375.53;4975024;28;1854;-89
2022/04/19 06:19:25;;;;;;;;;;;;;;;5.71;70.33;100373.69;4975524;28;1611;-89
2022/04/19 06:21:50;;;;;;;;;;;;;;;5.56;70.24;100379.75;4958402;28;1224;-89
2022/04/19 06:24:15;;;;;;;;;;;;;;;5.54;70.11;100376.44;4958053;28;1902;-87
2022/04/19 06:26:40;;;;;;;;;;;;;;;5.62;70.61;100373.28;4961858;28;1950;-89
2022/04/19 06:29:06;;;;;;;;;;;;;;;5.75;70.70;100366.69;4958123;28;1253;-90
2022/04/19 06:31:31;;;;;;;;;;;;;;;5.86;70.10;100362.22;4973510;28;1505;-88
2022/04/19 06:33:56;;;;;;;;;;;;;;;5.87;70.20;100366.56;4975248;28;1968;-89
2022/04/19 06:36:22;;;;;;;;;;;;;;;6.04;70.40;100370.03;4949421;28;1666;-91
2022/04/19 06:38:47;;;;;;;;;;;;;;;6.20;69.32;100371.06;4950944;29;1773;-89
2022/04/19 06:41:12;;;;;;;;;;;;;;;6.30;68.89;100368.44;4968556;28;1570;-88
2022/04/19 06:43:38;;;;;;;;;;;;;;;6.39;69.70;100367.72;4974601;28;1453;-88
2022/04/19 06:46:03;;;;;;;;;;;;;;;6.38;69.56;100366.09;4956168;28;1899;-89
2022/04/19 06:48:29;;;;;;;;;;;;;;;6.49;70.11;100371.63;4937912;29;1324;-88
2022/04/19 06:50:54;;;;;;;;;;;;;;;6.58;69.86;100365.47;4955570;29;1186;-89
2022/04/19 06:53:20;;;;;;;;;;;;;;;6.65;68.05;100359.81;4965909;28;1167;-92
2022/04/19 06:55:45;;;;;;;;;;;;;;;6.73;67.85;100367.50;4957294;28;1572;-90
2022/04/19 06:58:11;;;;;;;;;;;;;;;6.82;67.71;100374.13;4943801;28;1198;-88
2022/04/19 07:00:36;;;;;;;;;;;;;;;6.86;68.41;100364.38;4937969;29;1305;-88
2022/04/19 07:03:01;;;;;;;;;;;;;;;6.94;68.38;100369.34;4938208;29;1340;-90
2022/04/19 07:05:26;;;;;;;;;;;;;;;7.01;67.40;100364.50;4938328;29;1894;-88
2022/04/19 07:07:51;;;;;;;;;;;;;;;7.05;68.07;100364.81;4972735;28;1124;-89
2022/04/19 07:10:16;;;;;;;;;;;;;;;7.06;68.34;100371.91;4974101;28;1363;-89
2022/04/19 07:12:42;;;;;;;;;;;;;;;7.10;68.37;100371.09;4963660;28;1126;-89
2022/04/19 07:15:07;;;;;;;;;;;;;;;7.14;68.91;100353.19;4955155;29;811;-89
2022/04/19 07:17:36;;;;;;;;;;;;;;;7.22;68.32;100360.03;4942331;29;1724;-88
2022/04/19 07:28:26;;;;;;;;;;;;;;;7.83;65.99;100358.44;4960496;28;1010;-89
2022/04/19 07:30:51;;;;;;;;;;;;;;;7.86;65.17;100365.28;4953964;28;1324;-89
2022/04/19 07:33:16;;;;;;;;;;;;;;;7.92;65.05;100359.59;4969951;28;1028;-89
2022/04/19 07:35:42;;;;;;;;;;;;;;;8.02;64.59;100361.53;4973565;28;1282;-89
2022/04/19 07:38:07;;;;;;;;;;;;;;;8.08;63.29;100360.47;4973056;28;1408;-89
2022/04/19 07:40:33;;;;;;;;;;;;;;;8.23;62.25;100359.72;4973804;28;1768;-89
2022/04/19 07:42:58;;;;;;;;;;;;;;;8.24;63.11;100356.72;4972752;28;1450;-91
2022/04/19 07:45:24;;;;;;;;;;;;;;;8.32;62.92;100360.84;4974489;28;1964;-90
2022/04/19 07:47:49;;;;;;;;;;;;;;;8.41;62.80;100361.97;4946945;28;1303;-89
2022/04/19 07:50:14;;;;;;;;;;;;;;;8.48;63.41;100359.81;4942205;28;1525;-89
2022/04/19 07:52:39;;;;;;;;;;;;;;;8.68;61.03;100359.00;4950349;28;1497;-90
2022/04/19 07:55:04;;;;;;;;;;;;;;;8.85;62.75;100348.63;4970656;28;1414;-88
2022/04/19 07:57:29;;;;;;;;;;;;;;;8.81;62.16;100346.72;4948718;28;1450;-88
2022/04/19 07:59:55;;;;;;;;;;;;;;;8.76;62.06;100347.56;4957982;28;1486;-89
2022/04/19 08:02:20;;;;;;;;;;;;;;;8.71;63.08;100347.53;4960437;28;1314;-88
2022/04/19 08:04:46;;;;;;;;;;;;;;;8.75;62.16;100345.09;4956508;28;1879;-89
2022/04/19 08:07:11;;;;;;;;;;;;;;;8.81;62.77;100344.81;4941225;28;1351;-89
2022/04/19 08:09:36;;;;;;;;;;;;;;;8.81;61.21;100338.53;4942345;29;1395;-89
2022/04/19 08:12:01;;;;;;;;;;;;;;;8.79;61.67;100335.25;4952412;28;1415;-89
2022/04/19 08:14:26;;;;;;;;;;;;;;;8.81;61.47;100344.00;4960124;28;1428;-90
2022/04/19 08:16:51;;;;;;;;;;;;;;;8.82;61.36;100345.66;4944353;28;1381;-90
2022/04/19 08:19:16;;;;;;;;;;;;;;;8.90;61.18;100351.38;4943487;28;1261;-88
2022/04/19 08:21:42;;;;;;;;;;;;;;;8.94;61.03;100354.34;4975347;28;1422;-89
2022/04/19 08:24:07;;;;;;;;;;;;;;;8.97;60.32;100349.19;4956354;28;1891;-88
2022/04/19 08:26:32;;;;;;;;;;;;;;;9.05;60.79;100351.38;4971935;28;1486;-87
2022/04/19 08:28:58;;;;;;;;;;;;;;;9.11;60.21;100349.44;4976870;28;1250;-88
2022/04/19 08:31:23;;;;;;;;;;;;;;;9.03;59.32;100347.25;4976077;28;1407;-87
2022/04/19 08:33:48;;;;;;;;;;;;;;;9.06;59.93;100346.72;4960061;28;1431;-89
2022/04/19 08:36:13;;;;;;;;;;;;;;;9.10;60.32;100342.38;4959251;28;1285;-88
2022/04/19 08:38:38;;;;;;;;;;;;;;;9.27;62.05;100342.88;4975791;28;1504;-88
2022/04/19 08:41:04;;;;;;;;;;;;;;;9.47;59.80;100342.84;4959633;28;1466;-88
2022/04/19 08:43:29;;;;;;;;;;;;;;;9.52;58.79;100349.41;4940649;29;1255;-88
2022/04/19 08:45:54;;;;;;;;;;;;;;;9.53;58.22;100349.09;4940733;29;1895;-88
2022/04/19 08:48:24;;;;;;;;;;;;;;;9.62;58.20;100339.22;4943483;28;1752;-88
2022/04/19 08:50:51;;;;;;;;;;;;;;;9.61;57.78;100351.25;4947462;29;1446;-87
2022/04/19 08:58:44;;;;;;;;;;;;;;;9.73;56.25;100348.22;4977401;28;629;-88
2022/04/19 09:01:09;;;;;;;;;;;;;;;9.79;53.37;100349.84;4958273;28;1367;-88
2022/04/19 09:03:37;;;;;;;;;;;;;;;9.79;55.24;100350.66;4943924;28;1194;-90
2022/04/19 09:06:03;;;;;;;;;;;;;;;9.82;54.64;100352.03;4944545;28;1899;-89
2022/04/19 09:08:28;;;;;;;;;;;;;;;10.19;53.84;100351.63;4941193;28;1437;-88
2022/04/19 09:11:02;;;;;;;;;;;;;;;10.26;51.44;100354.88;4957136;28;1293;-90
2022/04/19 09:13:28;;;;;;;;;;;;;;;10.35;54.39;100350.44;4952711;28;1312;-90
2022/04/19 09:15:54;;;;;;;;;;;;;;;10.38;52.63;100360.00;4967133;28;1628;-90
2022/04/19 09:18:24;;;;;;;;;;;;;;;10.27;52.84;100351.03;4940464;29;1249;-89
2022/04/19 09:20:52;;;;;;;;;;;;;;;10.39;52.79;100362.44;4940042;28;1473;-88
2022/04/19 09:23:18;;;;;;;;;;;;;;;10.43;53.79;100355.31;4939969;29;1387;-88
2022/04/19 09:25:43;;;;;;;;;;;;;;;10.25;54.12;100364.16;4940238;29;1890;-89
2022/04/19 09:28:19;;;;;;;;;;;;;;;10.34;54.19;100357.00;4956225;28;1404;-89
2022/04/19 09:30:45;;;;;;;;;;;;;;;10.38;52.75;100357.28;4952816;28;1617;-89
2022/04/19 09:33:14;;;;;;;;;;;;;;;10.28;52.83;100358.16;4939648;29;1224;-89
2022/04/19 09:35:39;;;;;;;;;;;;;;;10.34;54.37;100356.19;4940614;29;1296;-89
2022/04/19 09:38:05;;;;;;;;;;;;;;;10.44;50.88;100365.16;4957136;28;1068;-89
2022/04/19 09:40:35;;;;;;;;;;;;;;;10.43;51.98;100357.22;4941237;28;1644;-88
2022/04/19 09:43:26;;;;;;;;;;;;;;;10.50;51.78;100355.00;4939662;29;1221;-88
2022/04/19 09:45:51;;;;;;;;;;;;;;;10.71;49.49;100364.72;4963627;28;1971;-89
2022/04/19 09:48:35;;;;;;;;;;;;;;;10.51;48.43;100353.91;4943601;28;1481;-88
2022/04/19 09:51:05;;;;;;;;;;;;;;;10.46;48.48;100360.19;4969636;28;1545;-87
2022/04/19 09:53:31;;;;;;;;;;;;;;;10.44;49.88;100367.09;4973363;28;1363;-89
2022/04/19 09:55:57;;;;;;;;;;;;;;;10.54;49.13;100367.03;4955983;28;1332;-88
2022/04/19 09:58:23;;;;;;;;;;;;;;;10.67;47.89;100365.56;4965589;28;1295;-88
2022/04/19 10:00:49;;;;;;;;;;;;;;;10.86;44.98;100361.88;4958209;28;1324;-87
2022/04/19 10:08:43;;;;;;;;;;;;;;;10.83;39.91;100350.66;4977728;28;605;-87
2022/04/19 10:11:09;;;;;;;;;;;;;;;10.81;42.30;100355.59;4959765;28;1194;-87
2022/04/19 10:13:34;;;;;;;;;;;;;;;10.82;42.46;100349.84;4952764;28;1680;-87
2022/04/19 10:16:00;;;;;;;;;;;;;;;10.75;37.87;100346.59;4973787;28;1351;-87
2022/04/19 10:18:25;;;;;;;;;;;;;;;10.98;41.02;100347.78;4957998;28;1335;-87
2022/04/19 10:20:51;;;;;;;;;;;;;;;11.02;40.26;100350.78;4974201;28;1284;-87
2022/04/19 10:23:16;;;;;;;;;;;;;;;11.18;43.04;100355.00;4968551;28;1474;-87
2022/04/19 10:25:44;;;;;;;;;;;;;;;11.03;41.30;100357.91;4957313;28;1961;-87
2022/04/19 10:28:13;;;;;;;;;;;;;;;11.13;42.56;100358.63;4949883;28;1255;-87
2022/04/19 10:30:45;;;;;;;;;;;;;;;11.26;42.30;100359.88;4949997;28;1514;-87
2022/04/19 10:33:31;;;;;;;;;;;;;;;11.23;43.11;100364.00;4965561;28;1423;-89
2022/04/19 10:36:15;;;;;;;;;;;;;;;11.25;42.38;100358.22;4967813;28;1372;-87
2022/04/19 10:38:41;;;;;;;;;;;;;;;11.36;39.04;100357.03;4939272;29;1193;-88
2022/04/19 10:41:07;;;;;;;;;;;;;;;11.25;38.23;100353.56;4971608;28;1292;-88
2022/04/19 10:43:32;;;;;;;;;;;;;;;11.27;40.69;100353.28;4942978;29;1425;-89
2022/04/19 10:46:16;;;;;;;;;;;;;;;11.41;39.92;100353.41;4946162;28;1955;-88
2022/04/19 10:49:00;;;;;;;;;;;;;;;11.35;41.46;100350.75;4942916;28;1284;-88
2022/04/19 10:51:28;;;;;;;;;;;;;;;11.42;37.36;100339.44;4946326;28;1291;-88
2022/04/19 10:53:53;;;;;;;;;;;;;;;11.46;40.90;100340.50;4943797;29;1399;-89
2022/04/19 10:56:18;;;;;;;;;;;;;;;11.59;41.34;100352.69;4941756;28;1478;-88
2022/04/19 10:58:44;;;;;;;;;;;;;;;11.76;40.39;100347.59;4951760;28;1505;-89
2022/04/19 11:04:32;;;;;;;;;;;;;;;11.72;42.57;100350.06;4975254;28;1961;-88
2022/04/19 11:06:57;;;;;;;;;;;;;;;11.77;39.09;100360.19;4958055;28;1304;-88
2022/04/19 11:09:26;;;;;;;;;;;;;;;11.65;40.86;100338.63;4958221;28;1373;-88
2022/04/19 11:11:56;;;;;;;;;;;;;;;11.65;37.45;100348.78;4954478;29;1381;-89
2022/04/19 11:14:37;;;;;;;;;;;;;;;11.68;41.24;100353.69;4955910;28;1466;-88
2022/04/19 11:17:21;;;;;;;;;;;;;;;11.78;36.82;100350.03;4954627;28;1725;-88
2022/04/19 11:20:05;;;;;;;;;;;;;;;11.76;37.87;100339.34;4945315;28;1445;-89
2022/04/19 11:22:47;;;;;;;;;;;;;;;11.81;41.30;100347.53;4942646;28;1509;-89
2022/04/19 11:25:12;;;;;;;;;;;;;;;11.86;39.34;100349.41;4939033;29;1942;-88
2022/04/19 11:27:53;;;;;;;;;;;;;;;12.00;39.14;100348.38;4942677;28;1742;-88
2022/04/19 11:30:18;;;;;;;;;;;;;;;12.17;41.11;100350.63;4957649;28;1186;-86
2022/04/19 11:32:48;;;;;;;;;;;;;;;12.22;41.28;100353.31;4950368;28;1276;-87
2022/04/19 11:35:15;;;;;;;;;;;;;;;12.22;38.34;100344.28;4941237;29;1375;-87
2022/04/19 11:37:41;;;;;;;;;;;;;;;12.35;38.67;100347.09;4945910;29;1293;-87
2022/04/19 11:48:29;;;;;;;;;;;;;;;12.88;38.23;100341.34;4959529;29;626;-86
2022/04/19 11:51:04;;;;;;;;;;;;;;;12.93;40.08;100333.03;4941906;28;1437;-87
2022/04/19 11:53:30;;;;;;;;;;;;;;;12.96;40.15;100315.94;4942182;29;1344;-87
2022/04/19 11:55:59;;;;;;;;;;;;;;;12.99;37.92;100314.53;4958122;28;1234;-87
2022/04/19 11:58:24;;;;;;;;;;;;;;;13.05;37.74;100308.66;4979360;28;775;-87
2022/04/19 12:00:58;;;;;;;;;;;;;;;13.08;38.73;100316.31;4978616;28;1237;-86
2022/04/19 12:03:24;;;;;;;;;;;;;;;13.09;39.36;100317.94;4943266;29;1483;-87
2022/04/19 12:05:51;;;;;;;;;;;;;;;13.05;40.17;100311.41;4942214;29;1895;-87
2022/04/19 12:08:33;;;;;;;;;;;;;;;13.01;38.40;100293.09;4942404;29;1246;-87
2022/04/19 12:10:59;;;;;;;;;;;;;;;13.01;38.95;100299.41;4942125;29;1337;-87
2022/04/19 12:13:24;;;;;;;;;;;;;;;13.07;39.25;100300.13;4977207;28;1875;-86
2022/04/19 12:15:50;;;;;;;;;;;;;;;13.16;40.29;100292.84;4961192;28;1217;-87
2022/04/19 12:18:31;;;;;;;;;;;;;;;13.19;39.32;100300.44;4961139;28;1226;-86
2022/04/19 12:20:56;;;;;;;;;;;;;;;13.13;38.30;100301.63;4960808;28;1275;-86
2022/04/19 12:23:22;;;;;;;;;;;;;;;13.06;39.69;100302.03;4943320;28;1686;-86
2022/04/19 12:26:00;;;;;;;;;;;;;;;13.15;39.59;100297.50;4941823;29;1902;-86
2022/04/19 12:28:42;;;;;;;;;;;;;;;13.31;40.16;100289.81;4959253;29;925;-86
2022/04/19 12:31:08;;;;;;;;;;;;;;;13.45;39.89;100293.38;4959159;28;1286;-87
2022/04/19 12:33:34;;;;;;;;;;;;;;;13.48;38.83;100291.94;4958819;28;1773;-87
2022/04/19 12:36:00;;;;;;;;;;;;;;;13.44;37.21;100288.19;4958642;28;794;-87
2022/04/19 12:38:29;;;;;;;;;;;;;;;13.50;38.79;100286.97;4941559;29;1256;-86
2022/04/19 12:40:54;;;;;;;;;;;;;;;13.58;37.87;100273.31;4959009;29;1383;-87
2022/04/19 12:43:19;;;;;;;;;;;;;;;13.71;39.46;100281.84;4951288;28;1729;-87
2022/04/19 12:45:45;;;;;;;;;;;;;;;13.68;38.87;100275.06;4976231;28;1919;-87
2022/04/19 12:48:17;;;;;;;;;;;;;;;13.69;35.54;100282.19;4977268;28;913;-87
2022/04/19 12:50:42;;;;;;;;;;;;;;;13.57;34.66;100270.88;4977991;28;1268;-86
2022/04/19 12:53:20;;;;;;;;;;;;;;;13.62;37.22;100277.06;4960448;28;1154;-87
2022/04/19 12:55:45;;;;;;;;;;;;;;;13.74;36.88;100265.56;4977444;28;1622;-87
2022/04/19 12:58:11;;;;;;;;;;;;;;;13.79;36.86;100279.19;4960506;28;955;-87
2022/04/19 13:00:36;;;;;;;;;;;;;;;13.90;37.18;100272.38;4977940;28;1197;-86
2022/04/19 13:03:02;;;;;;;;;;;;;;;14.03;38.32;100266.00;4960300;28;1305;-87
2022/04/19 13:13:39;;;;;;;;;;;;;;;14.57;36.92;100261.50;4964788;28;1414;-88
2022/04/19 13:16:04;;;;;;;;;;;;;;;15.05;36.51;100258.09;4971185;28;1565;-88
2022/04/19 13:18:30;;;;;;;;;;;;;;;15.50;35.07;100258.75;4960082;28;1372;-88
2022/04/19 13:20:55;;;;;;;;;;;;;;;18.73;33.32;100250.59;4977000;28;1249;-88
2022/04/19 13:23:20;;;;;;;;;;;;;;;24.17;24.77;100232.59;4948678;28;1430;-87
2022/04/19 13:25:45;;;;;;;;;;;;;;;27.09;21.13;100234.66;4959367;28;1957;-87
2022/04/19 13:28:10;;;;;;;;;;;;;;;28.35;20.19;100235.00;4955550;28;1225;-88
2022/04/19 13:30:39;;;;;;;;;;;;;;;29.00;19.07;100233.53;4943746;29;1430;-88
2022/04/19 13:33:05;;;;;;;;;;;;;;;25.27;18.91;100243.13;4952887;28;1531;-88
2022/04/19 13:35:30;;;;;;;;;;;;;;;25.78;19.52;100237.59;4940456;29;1245;-88
2022/04/19 13:40:39;;;;;;;;;;;;;;;23.09;23.27;100231.25;4969013;28;1265;-88
2022/04/19 13:43:04;;;;;;;;;;;;;;;24.16;21.61;100226.19;4946119;28;1401;-88
2022/04/19 13:45:31;;;;;;;;;;;;;;;25.26;21.33;100228.31;4974948;28;1902;-88
2022/04/19 13:47:57;;;;;;;;;;;;;;;25.46;20.66;100222.50;4941335;28;1573;-88
2022/04/19 13:50:23;;;;;;;;;;;;;;;24.21;21.41;100216.72;4945927;28;1675;-87